sensor_id;sensor_type;location;lat;lon;timestamp;pressure;altitude;pressure_sealevel;temperature;humidity
42603;BME280;28233;55.748;48.752;2023-03-03T00:00:23;97809.31;;;-7.92;82.89
42603;BME280;28233;55.748;48.752;2023-03-03T00:02:26;97799.03;;;-8.00;82.59
42603;BME280;28233;55.748;48.752;2023-03-03T00:04:29;97814.00;;;-7.99;82.71
42603;BME280;28233;55.748;48.752;2023-03-03T00:06:31;97806.53;;;-7.97;82.87
42603;BME280;28233;55.748;48.752;2023-03-03T00:08:34;97806.53;;;-7.97;82.98
42603;BME280;28233;55.748;48.752;2023-03-03T00:10:37;97811.63;;;-7.96;82.33
42603;BME280;28233;55.748;48.752;2023-03-03T00:12:48;97811.78;;;-8.02;82.15
42603;BME280;28233;55.748;48.752;2023-03-03T00:14:51;97801.47;;;-7.99;82.14
42603;BME280;28233;55.748;48.752;2023-03-03T00:16:55;97807.59;;;-7.98;82.23
42603;BME280;28233;55.748;48.752;2023-03-03T00:18:58;97803.31;;;-7.99;82.37
42603;BME280;28233;55.748;48.752;2023-03-03T00:21:25;97804.28;;;-8.05;81.66
42603;BME280;28233;55.748;48.752;2023-03-03T00:23:35;97805.88;;;-8.04;82.22
42603;BME280;28233;55.748;48.752;2023-03-03T00:25:42;97800.56;;;-8.04;82.19
42603;BME280;28233;55.748;48.752;2023-03-03T00:27:45;97811.94;;;-8.09;82.49
42603;BME280;28233;55.748;48.752;2023-03-03T00:29:52;97802.69;;;-8.06;82.51
42603;BME280;28233;55.748;48.752;2023-03-03T00:32:12;97798.97;;;-8.05;82.58
42603;BME280;28233;55.748;48.752;2023-03-03T00:36:28;97797.09;;;-8.05;82.52
42603;BME280;28233;55.748;48.752;2023-03-03T00:38:34;97802.13;;;-8.09;82.10
42603;BME280;28233;55.748;48.752;2023-03-03T00:40:39;97800.75;;;-8.11;82.26
42603;BME280;28233;55.748;48.752;2023-03-03T00:42:46;97799.13;;;-8.12;82.62
42603;BME280;28233;55.748;48.752;2023-03-03T00:44:58;97805.91;;;-8.21;82.56
42603;BME280;28233;55.748;48.752;2023-03-03T00:49:23;97800.44;;;-8.32;82.45
42603;BME280;28233;55.748;48.752;2023-03-03T00:51:32;97802.19;;;-8.37;82.42
42603;BME280;28233;55.748;48.752;2023-03-03T00:53:35;97797.28;;;-8.45;82.96
42603;BME280;28233;55.748;48.752;2023-03-03T00:55:38;97800.44;;;-8.48;83.37
42603;BME280;28233;55.748;48.752;2023-03-03T00:57:41;97804.16;;;-8.49;83.09
42603;BME280;28233;55.748;48.752;2023-03-03T00:59:44;97802.53;;;-8.51;83.51
42603;BME280;28233;55.748;48.752;2023-03-03T01:01:47;97804.06;;;-8.55;84.03
42603;BME280;28233;55.748;48.752;2023-03-03T01:03:50;97796.56;;;-8.58;83.48
42603;BME280;28233;55.748;48.752;2023-03-03T01:05:53;97799.69;;;-8.61;83.55
42603;BME280;28233;55.748;48.752;2023-03-03T01:07:56;97795.66;;;-8.63;83.67
42603;BME280;28233;55.748;48.752;2023-03-03T01:09:58;97806.78;;;-8.66;83.74
42603;BME280;28233;55.748;48.752;2023-03-03T01:12:01;97808.00;;;-8.74;83.92
42603;BME280;28233;55.748;48.752;2023-03-03T01:14:04;97798.63;;;-8.77;84.59
42603;BME280;28233;55.748;48.752;2023-03-03T01:16:06;97802.31;;;-8.78;84.07
42603;BME280;28233;55.748;48.752;2023-03-03T01:18:11;97798.53;;;-8.82;84.62
42603;BME280;28233;55.748;48.752;2023-03-03T01:20:14;97795.06;;;-8.82;84.63
42603;BME280;28233;55.748;48.752;2023-03-03T01:22:17;97792.97;;;-8.80;85.15
42603;BME280;28233;55.748;48.752;2023-03-03T01:24:20;97785.56;;;-8.78;84.92
42603;BME280;28233;55.748;48.752;2023-03-03T01:26:23;97783.47;;;-8.76;85.72
42603;BME280;28233;55.748;48.752;2023-03-03T01:28:26;97775.00;;;-8.73;85.94
42603;BME280;28233;55.748;48.752;2023-03-03T01:30:29;97782.50;;;-8.70;85.69
42603;BME280;28233;55.748;48.752;2023-03-03T01:32:33;97771.88;;;-8.70;86.19
42603;BME280;28233;55.748;48.752;2023-03-03T01:34:35;97776.22;;;-8.64;86.25
42603;BME280;28233;55.748;48.752;2023-03-03T01:36:38;97765.47;;;-8.69;86.68
42603;BME280;28233;55.748;48.752;2023-03-03T01:38:41;97773.78;;;-8.65;87.35
42603;BME280;28233;55.748;48.752;2023-03-03T01:40:55;97780.75;;;-8.64;87.21
42603;BME280;28233;55.748;48.752;2023-03-03T01:42:59;97780.81;;;-8.59;87.26
42603;BME280;28233;55.748;48.752;2023-03-03T01:45:40;97785.91;;;-8.58;87.77
42603;BME280;28233;55.748;48.752;2023-03-03T01:50:05;97773.97;;;-8.55;87.29
42603;BME280;28233;55.748;48.752;2023-03-03T01:52:33;97775.84;;;-8.56;87.91
42603;BME280;28233;55.748;48.752;2023-03-03T01:54:50;97770.59;;;-8.51;88.10
42603;BME280;28233;55.748;48.752;2023-03-03T01:56:57;97773.31;;;-8.45;87.78
42603;BME280;28233;55.748;48.752;2023-03-03T01:59:04;97766.69;;;-8.43;87.66
42603;BME280;28233;55.748;48.752;2023-03-03T02:01:11;97770.75;;;-8.40;88.56
42603;BME280;28233;55.748;48.752;2023-03-03T02:03:18;97771.81;;;-8.41;88.51
42603;BME280;28233;55.748;48.752;2023-03-03T02:05:22;97768.31;;;-8.42;88.36
42603;BME280;28233;55.748;48.752;2023-03-03T02:07:26;97772.25;;;-8.44;87.75
42603;BME280;28233;55.748;48.752;2023-03-03T02:11:50;97778.09;;;-8.47;87.99
42603;BME280;28233;55.748;48.752;2023-03-03T02:13:54;97774.63;;;-8.48;87.96
42603;BME280;28233;55.748;48.752;2023-03-03T02:15:56;97765.84;;;-8.48;88.51
42603;BME280;28233;55.748;48.752;2023-03-03T02:18:09;97761.59;;;-8.44;88.79
42603;BME280;28233;55.748;48.752;2023-03-03T02:23:17;97753.75;;;-8.34;88.93
42603;BME280;28233;55.748;48.752;2023-03-03T02:26:12;97764.66;;;-8.36;88.88
42603;BME280;28233;55.748;48.752;2023-03-03T02:27:47;97758.28;;;-8.35;88.67
42603;BME280;28233;55.748;48.752;2023-03-03T02:29:51;97766.28;;;-8.35;88.54
42603;BME280;28233;55.748;48.752;2023-03-03T02:31:53;97761.41;;;-8.38;89.18
42603;BME280;28233;55.748;48.752;2023-03-03T02:33:56;97759.31;;;-8.36;89.42
42603;BME280;28233;55.748;48.752;2023-03-03T02:35:59;97754.22;;;-8.37;89.21
42603;BME280;28233;55.748;48.752;2023-03-03T02:38:28;97760.63;;;-8.38;89.64
42603;BME280;28233;55.748;48.752;2023-03-03T02:40:36;97760.09;;;-8.40;90.26
42603;BME280;28233;55.748;48.752;2023-03-03T02:42:42;97747.31;;;-8.38;90.29
42603;BME280;28233;55.748;48.752;2023-03-03T02:44:46;97754.56;;;-8.34;90.53
42603;BME280;28233;55.748;48.752;2023-03-03T02:46:51;97748.28;;;-8.27;90.73
42603;BME280;28233;55.748;48.752;2023-03-03T02:48:54;97751.00;;;-8.22;90.95
42603;BME280;28233;55.748;48.752;2023-03-03T02:50:56;97744.13;;;-8.18;90.85
42603;BME280;28233;55.748;48.752;2023-03-03T02:52:59;97744.38;;;-8.20;90.25
42603;BME280;28233;55.748;48.752;2023-03-03T02:55:02;97731.69;;;-8.13;90.80
42603;BME280;28233;55.748;48.752;2023-03-03T02:57:05;97734.94;;;-8.11;91.03
42603;BME280;28233;55.748;48.752;2023-03-03T02:59:08;97735.50;;;-8.09;90.83
42603;BME280;28233;55.748;48.752;2023-03-03T03:01:11;97736.38;;;-8.03;90.92
42603;BME280;28233;55.748;48.752;2023-03-03T03:03:14;97734.25;;;-8.01;90.88
42603;BME280;28233;55.748;48.752;2023-03-03T03:05:17;97737.56;;;-7.94;91.10
42603;BME280;28233;55.748;48.752;2023-03-03T03:07:20;97732.28;;;-7.89;90.84
42603;BME280;28233;55.748;48.752;2023-03-03T03:09:23;97724.53;;;-7.90;91.25
42603;BME280;28233;55.748;48.752;2023-03-03T03:11:27;97725.09;;;-7.88;90.95
42603;BME280;28233;55.748;48.752;2023-03-03T03:13:30;97725.97;;;-7.82;91.33
42603;BME280;28233;55.748;48.752;2023-03-03T03:15:34;97713.47;;;-7.82;91.15
42603;BME280;28233;55.748;48.752;2023-03-03T03:17:38;97724.19;;;-7.77;90.75
42603;BME280;28233;55.748;48.752;2023-03-03T03:19:40;97724.91;;;-7.81;90.93
42603;BME280;28233;55.748;48.752;2023-03-03T03:21:43;97711.03;;;-7.83;91.35
42603;BME280;28233;55.748;48.752;2023-03-03T03:23:46;97721.28;;;-7.75;91.16
42603;BME280;28233;55.748;48.752;2023-03-03T03:25:48;97725.72;;;-7.81;90.85
42603;BME280;28233;55.748;48.752;2023-03-03T03:27:52;97716.69;;;-7.80;91.06
42603;BME280;28233;55.748;48.752;2023-03-03T03:29:54;97715.69;;;-7.74;90.55
42603;BME280;28233;55.748;48.752;2023-03-03T03:31:57;97709.72;;;-7.81;91.11
42603;BME280;28233;55.748;48.752;2023-03-03T03:34:00;97726.03;;;-7.77;90.92
42603;BME280;28233;55.748;48.752;2023-03-03T03:36:03;97720.47;;;-7.76;90.75
42603;BME280;28233;55.748;48.752;2023-03-03T03:38:07;97718.03;;;-7.77;90.63
42603;BME280;28233;55.748;48.752;2023-03-03T03:40:10;97719.34;;;-7.80;90.79
42603;BME280;28233;55.748;48.752;2023-03-03T03:42:13;97718.56;;;-7.80;90.73
42603;BME280;28233;55.748;48.752;2023-03-03T03:44:16;97722.53;;;-7.83;91.34
42603;BME280;28233;55.748;48.752;2023-03-03T03:46:19;97711.75;;;-7.88;91.35
42603;BME280;28233;55.748;48.752;2023-03-03T03:48:22;97701.66;;;-7.86;91.05
42603;BME280;28233;55.748;48.752;2023-03-03T03:50:25;97714.69;;;-7.90;91.26
42603;BME280;28233;55.748;48.752;2023-03-03T03:52:28;97704.28;;;-7.91;91.43
42603;BME280;28233;55.748;48.752;2023-03-03T03:54:30;97706.63;;;-7.95;91.75
42603;BME280;28233;55.748;48.752;2023-03-03T03:56:33;97704.78;;;-7.94;91.59
42603;BME280;28233;55.748;48.752;2023-03-03T03:58:36;97712.25;;;-7.91;91.97
42603;BME280;28233;55.748;48.752;2023-03-03T04:00:40;97708.88;;;-7.87;91.63
42603;BME280;28233;55.748;48.752;2023-03-03T04:02:43;97710.78;;;-7.82;91.75
42603;BME280;28233;55.748;48.752;2023-03-03T04:04:46;97711.66;;;-7.76;91.71
42603;BME280;28233;55.748;48.752;2023-03-03T04:06:49;97714.06;;;-7.75;91.84
42603;BME280;28233;55.748;48.752;2023-03-03T04:08:51;97714.47;;;-7.66;91.43
42603;BME280;28233;55.748;48.752;2023-03-03T04:10:54;97714.28;;;-7.59;92.02
42603;BME280;28233;55.748;48.752;2023-03-03T04:12:57;97709.00;;;-7.54;91.85
42603;BME280;28233;55.748;48.752;2023-03-03T04:14:59;97708.25;;;-7.50;91.56
42603;BME280;28233;55.748;48.752;2023-03-03T04:17:04;97709.09;;;-7.44;91.65
42603;BME280;28233;55.748;48.752;2023-03-03T04:19:07;97712.38;;;-7.37;91.78
42603;BME280;28233;55.748;48.752;2023-03-03T04:21:11;97715.97;;;-7.26;92.20
42603;BME280;28233;55.748;48.752;2023-03-03T04:23:14;97697.84;;;-7.24;91.25
42603;BME280;28233;55.748;48.752;2023-03-03T04:25:17;97703.56;;;-7.10;91.62
42603;BME280;28233;55.748;48.752;2023-03-03T04:27:20;97704.97;;;-7.08;91.15
42603;BME280;28233;55.748;48.752;2023-03-03T04:29:22;97700.22;;;-7.00;91.16
42603;BME280;28233;55.748;48.752;2023-03-03T04:31:25;97710.69;;;-6.94;90.63
42603;BME280;28233;55.748;48.752;2023-03-03T04:33:28;97702.66;;;-6.94;90.23
42603;BME280;28233;55.748;48.752;2023-03-03T04:35:31;97698.97;;;-6.93;90.35
42603;BME280;28233;55.748;48.752;2023-03-03T04:37:34;97698.59;;;-7.02;89.78
42603;BME280;28233;55.748;48.752;2023-03-03T04:39:36;97698.34;;;-7.00;90.08
42603;BME280;28233;55.748;48.752;2023-03-03T04:41:39;97691.16;;;-6.99;89.51
42603;BME280;28233;55.748;48.752;2023-03-03T04:43:42;97698.34;;;-7.00;89.72
42603;BME280;28233;55.748;48.752;2023-03-03T04:45:45;97689.56;;;-7.00;89.32
42603;BME280;28233;55.748;48.752;2023-03-03T04:47:47;97702.91;;;-7.00;89.75
42603;BME280;28233;55.748;48.752;2023-03-03T04:49:50;97700.22;;;-7.00;89.79
42603;BME280;28233;55.748;48.752;2023-03-03T04:51:53;97693.31;;;-6.96;89.69
42603;BME280;28233;55.748;48.752;2023-03-03T04:53:56;97687.75;;;-6.90;89.96
42603;BME280;28233;55.748;48.752;2023-03-03T04:55:58;97690.56;;;-6.74;90.53
42603;BME280;28233;55.748;48.752;2023-03-03T04:58:01;97692.56;;;-6.60;90.13
42603;BME280;28233;55.748;48.752;2023-03-03T05:00:05;97692.41;;;-6.43;89.76
42603;BME280;28233;55.748;48.752;2023-03-03T05:02:08;97688.50;;;-6.30;88.98
42603;BME280;28233;55.748;48.752;2023-03-03T05:04:11;97689.09;;;-6.18;88.84
42603;BME280;28233;55.748;48.752;2023-03-03T05:06:14;97694.00;;;-6.04;88.06
42603;BME280;28233;55.748;48.752;2023-03-03T05:08:16;97688.72;;;-5.94;87.47
42603;BME280;28233;55.748;48.752;2023-03-03T05:10:19;97693.56;;;-5.81;87.16
42603;BME280;28233;55.748;48.752;2023-03-03T05:12:22;97694.94;;;-5.73;86.74
42603;BME280;28233;55.748;48.752;2023-03-03T05:14:26;97691.25;;;-5.62;86.25
42603;BME280;28233;55.748;48.752;2023-03-03T05:16:29;97700.06;;;-5.61;85.85
42603;BME280;28233;55.748;48.752;2023-03-03T05:18:32;97694.75;;;-5.46;85.77
42603;BME280;28233;55.748;48.752;2023-03-03T05:20:34;97694.75;;;-5.46;84.46
42603;BME280;28233;55.748;48.752;2023-03-03T05:22:37;97693.72;;;-5.40;84.35
42603;BME280;28233;55.748;48.752;2023-03-03T05:24:40;97687.28;;;-5.39;83.96
42603;BME280;28233;55.748;48.752;2023-03-03T05:26:44;97694.56;;;-5.29;84.32
42603;BME280;28233;55.748;48.752;2023-03-03T05:28:47;97676.59;;;-5.34;83.81
42603;BME280;28233;55.748;48.752;2023-03-03T05:30:49;97688.91;;;-5.27;83.50
42603;BME280;28233;55.748;48.752;2023-03-03T05:32:52;97687.56;;;-5.40;83.32
42603;BME280;28233;55.748;48.752;2023-03-03T05:34:55;97692.38;;;-5.32;84.27
42603;BME280;28233;55.748;48.752;2023-03-03T05:36:58;97698.84;;;-5.23;83.86
42603;BME280;28233;55.748;48.752;2023-03-03T05:39:00;97687.88;;;-5.21;83.49
42603;BME280;28233;55.748;48.752;2023-03-03T05:41:03;97691.09;;;-5.24;82.95
42603;BME280;28233;55.748;48.752;2023-03-03T05:43:06;97685.44;;;-5.28;83.60
42603;BME280;28233;55.748;48.752;2023-03-03T05:45:09;97689.47;;;-5.20;83.15
42603;BME280;28233;55.748;48.752;2023-03-03T05:47:12;97687.09;;;-5.12;83.90
42603;BME280;28233;55.748;48.752;2023-03-03T05:49:15;97684.41;;;-5.12;83.07
42603;BME280;28233;55.748;48.752;2023-03-03T05:51:18;97682.03;;;-5.03;82.88
42603;BME280;28233;55.748;48.752;2023-03-03T05:53:20;97679.91;;;-4.96;83.01
42603;BME280;28233;55.748;48.752;2023-03-03T05:55:23;97683.66;;;-4.86;83.62
42603;BME280;28233;55.748;48.752;2023-03-03T05:57:26;97676.97;;;-4.79;82.56
42603;BME280;28233;55.748;48.752;2023-03-03T05:59:29;97683.38;;;-4.64;83.33
42603;BME280;28233;55.748;48.752;2023-03-03T06:01:32;97678.81;;;-4.59;82.65
42603;BME280;28233;55.748;48.752;2023-03-03T06:03:35;97690.88;;;-4.56;82.14
42603;BME280;28233;55.748;48.752;2023-03-03T06:05:37;97683.91;;;-4.57;82.09
42603;BME280;28233;55.748;48.752;2023-03-03T06:07:40;97691.44;;;-4.59;81.71
42603;BME280;28233;55.748;48.752;2023-03-03T06:09:43;97684.22;;;-4.54;81.93
42603;BME280;28233;55.748;48.752;2023-03-03T06:11:45;97674.25;;;-4.43;82.23
42603;BME280;28233;55.748;48.752;2023-03-03T06:13:49;97679.63;;;-4.38;81.15
42603;BME280;28233;55.748;48.752;2023-03-03T06:15:51;97686.84;;;-4.28;80.47
42603;BME280;28233;55.748;48.752;2023-03-03T06:17:54;97680.13;;;-4.15;81.17
42603;BME280;28233;55.748;48.752;2023-03-03T06:19:57;97669.38;;;-4.05;80.93
42603;BME280;28233;55.748;48.752;2023-03-03T06:21:59;97666.16;;;-3.97;80.51
42603;BME280;28233;55.748;48.752;2023-03-03T06:24:02;97664.00;;;-3.95;79.65
42603;BME280;28233;55.748;48.752;2023-03-03T06:26:05;97668.25;;;-3.89;80.21
42603;BME280;28233;55.748;48.752;2023-03-03T06:28:07;97654.31;;;-3.86;80.07
42603;BME280;28233;55.748;48.752;2023-03-03T06:30:10;97662.03;;;-3.79;79.21
42603;BME280;28233;55.748;48.752;2023-03-03T06:32:14;97662.38;;;-3.86;79.14
42603;BME280;28233;55.748;48.752;2023-03-03T06:34:18;97662.03;;;-3.79;79.94
42603;BME280;28233;55.748;48.752;2023-03-03T06:36:20;97655.53;;;-3.63;80.16
42603;BME280;28233;55.748;48.752;2023-03-03T06:38:24;97659.00;;;-3.52;79.82
42603;BME280;28233;55.748;48.752;2023-03-03T06:40:27;97661.38;;;-3.45;78.85
42603;BME280;28233;55.748;48.752;2023-03-03T06:42:30;97654.38;;;-3.41;78.42
42603;BME280;28233;55.748;48.752;2023-03-03T06:44:33;97651.44;;;-3.45;77.88
42603;BME280;28233;55.748;48.752;2023-03-03T06:46:35;97647.66;;;-3.44;78.01
42603;BME280;28233;55.748;48.752;2023-03-03T06:48:38;97654.66;;;-3.43;77.82
42603;BME280;28233;55.748;48.752;2023-03-03T06:50:42;97649.84;;;-3.46;78.20
42603;BME280;28233;55.748;48.752;2023-03-03T06:52:44;97649.28;;;-3.43;78.30
42603;BME280;28233;55.748;48.752;2023-03-03T06:54:47;97643.34;;;-3.40;78.25
42603;BME280;28233;55.748;48.752;2023-03-03T06:56:53;97641.72;;;-3.35;78.49
42603;BME280;28233;55.748;48.752;2023-03-03T06:58:59;97640.94;;;-3.41;77.13
42603;BME280;28233;55.748;48.752;2023-03-03T07:01:12;97647.66;;;-3.38;77.45
42603;BME280;28233;55.748;48.752;2023-03-03T07:03:20;97649.50;;;-3.29;78.17
42603;BME280;28233;55.748;48.752;2023-03-03T07:05:25;97648.34;;;-3.23;77.03
42603;BME280;28233;55.748;48.752;2023-03-03T07:07:30;97639.91;;;-3.01;77.21
42603;BME280;28233;55.748;48.752;2023-03-03T07:09:32;97645.50;;;-2.97;76.61
42603;BME280;28233;55.748;48.752;2023-03-03T07:11:35;97642.25;;;-2.89;76.43
42603;BME280;28233;55.748;48.752;2023-03-03T07:13:54;97637.06;;;-2.80;75.03
42603;BME280;28233;55.748;48.752;2023-03-03T07:15:59;97643.69;;;-2.67;75.93
42603;BME280;28233;55.748;48.752;2023-03-03T07:18:33;97642.91;;;-2.73;74.26
42603;BME280;28233;55.748;48.752;2023-03-03T07:20:35;97640.47;;;-2.69;75.32
42603;BME280;28233;55.748;48.752;2023-03-03T07:22:40;97643.91;;;-2.64;75.17
42603;BME280;28233;55.748;48.752;2023-03-03T07:24:45;97639.34;;;-2.63;73.90
42603;BME280;28233;55.748;48.752;2023-03-03T07:26:48;97633.09;;;-2.53;74.56
42603;BME280;28233;55.748;48.752;2023-03-03T07:28:58;97634.69;;;-2.52;74.69
42603;BME280;28233;55.748;48.752;2023-03-03T07:31:25;97627.09;;;-2.45;74.58
42603;BME280;28233;55.748;48.752;2023-03-03T07:33:34;97620.00;;;-2.36;74.00
42603;BME280;28233;55.748;48.752;2023-03-03T07:35:43;97625.31;;;-2.31;73.90
42603;BME280;28233;55.748;48.752;2023-03-03T07:37:47;97625.66;;;-2.38;72.09
42603;BME280;28233;55.748;48.752;2023-03-03T07:39:50;97619.22;;;-2.37;73.30
42603;BME280;28233;55.748;48.752;2023-03-03T07:41:57;97625.31;;;-2.31;73.07
42603;BME280;28233;55.748;48.752;2023-03-03T07:44:44;97619.47;;;-2.09;73.45
42603;BME280;28233;55.748;48.752;2023-03-03T07:46:57;97620.31;;;-1.89;73.76
42603;BME280;28233;55.748;48.752;2023-03-03T07:51:39;97619.16;;;-1.59;72.26
42603;BME280;28233;55.748;48.752;2023-03-03T07:53:44;97610.41;;;-1.51;72.55
42603;BME280;28233;55.748;48.752;2023-03-03T07:55:49;97615.59;;;-1.55;72.20
42603;BME280;28233;55.748;48.752;2023-03-03T07:57:53;97609.41;;;-1.55;71.75
42603;BME280;28233;55.748;48.752;2023-03-03T08:02:40;97613.34;;;-1.47;72.31
42603;BME280;28233;55.748;48.752;2023-03-03T08:04:47;97616.84;;;-1.47;71.92
42603;BME280;28233;55.748;48.752;2023-03-03T08:06:54;97627.16;;;-1.54;70.92
42603;BME280;28233;55.748;48.752;2023-03-03T08:11:13;97623.78;;;-1.41;71.05
42603;BME280;28233;55.748;48.752;2023-03-03T08:13:19;97627.53;;;-1.23;71.55
42603;BME280;28233;55.748;48.752;2023-03-03T08:15:24;97617.69;;;-0.95;71.43
42603;BME280;28233;55.748;48.752;2023-03-03T08:17:35;97622.78;;;-0.74;70.58
42603;BME280;28233;55.748;48.752;2023-03-03T08:19:41;97610.47;;;-0.80;69.65
42603;BME280;28233;55.748;48.752;2023-03-03T08:21:43;97611.63;;;-0.68;68.97
42603;BME280;28233;55.748;48.752;2023-03-03T08:23:47;97620.41;;;-0.62;68.54
42603;BME280;28233;55.748;48.752;2023-03-03T08:25:53;97610.47;;;-0.48;69.67
42603;BME280;28233;55.748;48.752;2023-03-03T08:27:56;97612.28;;;-0.43;68.30
42603;BME280;28233;55.748;48.752;2023-03-03T08:29:58;97611.38;;;-0.38;68.98
42603;BME280;28233;55.748;48.752;2023-03-03T08:32:01;97613.13;;;-0.15;68.77
42603;BME280;28233;55.748;48.752;2023-03-03T08:34:04;97615.22;;;0.02;67.50
42603;BME280;28233;55.748;48.752;2023-03-03T08:36:07;97609.13;;;-0.04;66.31
42603;BME280;28233;55.748;48.752;2023-03-03T08:38:11;97607.75;;;-0.01;66.08
42603;BME280;28233;55.748;48.752;2023-03-03T08:40:15;97605.66;;;-0.04;66.71
42603;BME280;28233;55.748;48.752;2023-03-03T08:42:17;97600.63;;;-0.11;66.87
42603;BME280;28233;55.748;48.752;2023-03-03T08:44:20;97602.56;;;0.03;67.61
42603;BME280;28233;55.748;48.752;2023-03-03T08:46:23;97600.94;;;0.15;66.62
42603;BME280;28233;55.748;48.752;2023-03-03T08:48:27;97603.34;;;0.17;66.28
42603;BME280;28233;55.748;48.752;2023-03-03T08:50:29;97607.53;;;0.23;67.26
42603;BME280;28233;55.748;48.752;2023-03-03T08:52:32;97604.19;;;0.54;67.98
42603;BME280;28233;55.748;48.752;2023-03-03T08:54:35;97606.88;;;0.68;66.84
42603;BME280;28233;55.748;48.752;2023-03-03T08:56:38;97597.41;;;0.93;67.55
42603;BME280;28233;55.748;48.752;2023-03-03T08:58:41;97595.19;;;0.95;66.38
42603;BME280;28233;55.748;48.752;2023-03-03T09:01:03;97608.53;;;0.77;66.10
42603;BME280;28233;55.748;48.752;2023-03-03T09:03:06;97597.59;;;0.60;65.36
42603;BME280;28233;55.748;48.752;2023-03-03T09:05:10;97592.69;;;0.62;67.39
42603;BME280;28233;55.748;48.752;2023-03-03T09:07:13;97602.47;;;0.72;68.40
42603;BME280;28233;55.748;48.752;2023-03-03T09:09:16;97590.81;;;0.85;68.61
42603;BME280;28233;55.748;48.752;2023-03-03T09:11:23;97594.06;;;0.96;67.96
42603;BME280;28233;55.748;48.752;2023-03-03T09:13:29;97592.13;;;0.88;67.06
42603;BME280;28233;55.748;48.752;2023-03-03T09:15:34;97599.72;;;0.86;68.72
42603;BME280;28233;55.748;48.752;2023-03-03T09:17:37;97594.06;;;0.96;70.29
42603;BME280;28233;55.748;48.752;2023-03-03T09:19:40;97592.25;;;1.05;70.18
42603;BME280;28233;55.748;48.752;2023-03-03T09:21:43;97592.19;;;1.19;70.09
42603;BME280;28233;55.748;48.752;2023-03-03T09:25:58;97586.09;;;0.91;68.46
42603;BME280;28233;55.748;48.752;2023-03-03T09:28:23;97579.69;;;0.87;68.41
42603;BME280;28233;55.748;48.752;2023-03-03T09:30:33;97581.69;;;0.95;70.59
42603;BME280;28233;55.748;48.752;2023-03-03T09:32:37;97575.88;;;1.10;71.62
42603;BME280;28233;55.748;48.752;2023-03-03T09:34:45;97573.31;;;1.05;70.99
42603;BME280;28233;55.748;48.752;2023-03-03T09:36:51;97571.53;;;1.00;70.54
42603;BME280;28233;55.748;48.752;2023-03-03T09:38:56;97569.88;;;1.13;71.86
42603;BME280;28233;55.748;48.752;2023-03-03T09:43:20;97573.50;;;1.31;71.33
42603;BME280;28233;55.748;48.752;2023-03-03T09:45:36;97571.47;;;1.37;70.90
42603;BME280;28233;55.748;48.752;2023-03-03T09:48:09;97574.75;;;1.25;67.85
42603;BME280;28233;55.748;48.752;2023-03-03T09:57:36;97576.56;;;0.93;72.39
42603;BME280;28233;55.748;48.752;2023-03-03T09:59:52;97573.06;;;0.93;72.61
42603;BME280;28233;55.748;48.752;2023-03-03T10:07:29;97560.00;;;0.36;70.52
42603;BME280;28233;55.748;48.752;2023-03-03T10:10:02;97571.50;;;0.41;74.39
42603;BME280;28233;55.748;48.752;2023-03-03T10:15:31;97572.22;;;0.33;74.42
42603;BME280;28233;55.748;48.752;2023-03-03T10:17:28;97565.31;;;0.41;75.75
42603;BME280;28233;55.748;48.752;2023-03-03T10:19:49;97571.38;;;0.47;76.12
42603;BME280;28233;55.748;48.752;2023-03-03T10:22:09;97567.53;;;0.25;73.35
42603;BME280;28233;55.748;48.752;2023-03-03T10:24:26;97562.50;;;0.32;76.68
42603;BME280;28233;55.748;48.752;2023-03-03T10:33:52;97575.00;;;0.42;74.92
42603;BME280;28233;55.748;48.752;2023-03-03T10:52:18;97583.84;;;0.20;79.23
42603;BME280;28233;55.748;48.752;2023-03-03T11:01:24;97588.72;;;-0.24;79.62
42603;BME280;28233;55.748;48.752;2023-03-03T11:03:45;97591.00;;;-0.31;78.93
42603;BME280;28233;55.748;48.752;2023-03-03T11:06:00;97583.72;;;-0.30;79.28
42603;BME280;28233;55.748;48.752;2023-03-03T11:08:10;97583.91;;;-0.27;80.88
42603;BME280;28233;55.748;48.752;2023-03-03T11:17:22;97590.78;;;-0.48;79.65
42603;BME280;28233;55.748;48.752;2023-03-03T11:20:15;97596.50;;;-0.36;81.60
42603;BME280;28233;55.748;48.752;2023-03-03T11:24:36;97601.19;;;-0.41;82.22
42603;BME280;28233;55.748;48.752;2023-03-03T11:33:38;97600.13;;;-0.27;83.02
42603;BME280;28233;55.748;48.752;2023-03-03T11:40:24;97600.94;;;-0.12;83.38
42603;BME280;28233;55.748;48.752;2023-03-03T11:43:02;97596.31;;;-0.12;80.63
42603;BME280;28233;55.748;48.752;2023-03-03T11:45:22;97605.94;;;-0.06;82.46
42603;BME280;28233;55.748;48.752;2023-03-03T11:52:24;97602.75;;;0.06;82.29
42603;BME280;28233;55.748;48.752;2023-03-03T11:55:03;97602.34;;;0.13;82.97
42603;BME280;28233;55.748;48.752;2023-03-03T11:57:22;97599.13;;;0.25;83.41
42603;BME280;28233;55.748;48.752;2023-03-03T12:02:11;97599.91;;;0.39;83.74
42603;BME280;28233;55.748;48.752;2023-03-03T12:04:14;97590.91;;;0.44;83.97
42603;BME280;28233;55.748;48.752;2023-03-03T12:09:13;97591.28;;;0.65;81.50
42603;BME280;28233;55.748;48.752;2023-03-03T12:16:21;97607.09;;;0.71;83.12
42603;BME280;28233;55.748;48.752;2023-03-03T12:27:48;97594.25;;;0.27;84.06
42603;BME280;28233;55.748;48.752;2023-03-03T12:30:05;97599.31;;;0.28;85.34
42603;BME280;28233;55.748;48.752;2023-03-03T12:35:19;97602.13;;;0.09;86.54
42603;BME280;28233;55.748;48.752;2023-03-03T12:37:46;97609.94;;;0.11;86.94
42603;BME280;28233;55.748;48.752;2023-03-03T12:43:01;97600.84;;;0.07;87.22
42603;BME280;28233;55.748;48.752;2023-03-03T12:45:33;97596.34;;;0.16;88.07
42603;BME280;28233;55.748;48.752;2023-03-03T12:47:42;97596.16;;;0.12;88.06
42603;BME280;28233;55.748;48.752;2023-03-03T12:49:58;97603.75;;;0.10;88.64
42603;BME280;28233;55.748;48.752;2023-03-03T12:57:13;97606.16;;;0.12;88.71
42603;BME280;28233;55.748;48.752;2023-03-03T13:03:58;97605.84;;;0.13;90.52
42603;BME280;28233;55.748;48.752;2023-03-03T13:09:16;97605.66;;;-0.04;87.24
42603;BME280;28233;55.748;48.752;2023-03-03T13:11:41;97607.41;;;-0.27;87.25
42603;BME280;28233;55.748;48.752;2023-03-03T13:13:57;97607.50;;;-0.32;89.12
42603;BME280;28233;55.748;48.752;2023-03-03T13:23:50;97629.50;;;-0.25;91.28
42603;BME280;28233;55.748;48.752;2023-03-03T13:31:00;97622.03;;;-0.28;91.09